Portada
METAR-TAF:

METAR-TAF

Aeroports :

Katowice, Polònia

latitud: 50-28-27N, longitud: 019-04-48E, altitud: 284 m

Observació

L'informe es va fer fa 20 minuts, a les 01:00 UTC
Vent 10 kt del Sud-Oest
Temperatura -3°C
Humitat 93%
Pressió 1020 hPa
Visibilitat: 4400 m
boirina

METAR: EPKT 250100Z 22010KT 4400 BR NSC M03/M04 Q1020

Hora: 02:20 (01:20 UTC)

Pronòstic

L'informe es va fer fa 1 hora i 50 minuts, a les 23:30 UTC
Pronòstic vàlid del 25 a les 00 UTC al 25 a les 24 UTC
Vent 6 kt del Sud-Oest
Visibilitat: 7000 m
Temporalment
l' 25 a les 00 UTC al 25 a les 08 UTC
Visibilitat: 3000 m
boirina
Temporalment
l' 25 a les 09 UTC al 25 a les 12 UTC
Cel ennuvolat a una alçada de 900 ft
Evolucionant progressivament
l' 25 a les 16 UTC al 25 a les 19 UTC
Visibilitat: 3000 m
boirina

TAF: EPKT 242330Z 2500/2524 23006KT 7000 NSC TEMPO 2500/2508 3000 BR TEMPO 2509/2512 BKN009 BECMG 2516/2519 3000 BR

Observacions i pronòstics meteorològics de més de 4000 aeroports (METAR i TAF).

Les estacions disponibles són els punts grocs i vermells al mapa.

Posi el ratolí al punt desitjat per veure el nom de l'estació.

Feu clic per veure les observacions i els pronòstics meteorològics.

Per canviar el mapa: feu clic els botons verds amb una creu de color negre per apropar; al botó verd amb un guió per allunyar la imatge; o en les fletxes verdes per a mapes adjacents.


METAR-TAF: